Time,TemperatureF,DewpointF,PressureIn,WindDirection,WindDirectionDegrees,WindSpeedMPH,WindSpeedGustMPH,Humidity,HourlyPrecipIn,Conditions,Clouds,dailyrainin,SoftwareType,DateUTC
2013-10-18 00:03:00,61.9,60.5,-100.00,WSW,247,1.1,-999.0,95,-99.99,,,0.00,Acu-Link.com,2013-10-18 04:03:00,
2013-10-18 00:19:00,61.9,60.5,-100.00,SW,225,1.7,-999.0,95,-99.99,,,0.00,Acu-Link.com,2013-10-18 04:19:00,
2013-10-18 00:34:00,61.3,60.1,-100.00,South,180,4.2,-999.0,96,-99.99,,,0.00,Acu-Link.com,2013-10-18 04:34:00,
2013-10-18 00:49:00,61.5,60.3,-100.00,West,270,2.2,-999.0,96,-99.99,,,0.00,Acu-Link.com,2013-10-18 04:49:00,
2013-10-18 01:04:00,61.3,60.7,-100.00,WNW,292,1.1,-999.0,98,-99.99,,,0.00,Acu-Link.com,2013-10-18 05:04:00,
2013-10-18 01:20:00,61.3,60.7,-100.00,South,180,0.0,-999.0,98,-99.99,,,0.00,Acu-Link.com,2013-10-18 05:20:00,
2013-10-18 01:35:00,61.2,60.6,-100.00,SSE,157,1.1,-999.0,98,-99.99,,,0.00,Acu-Link.com,2013-10-18 05:35:00,
2013-10-18 01:51:00,61.2,60.9,-100.00,ENE,67,2.2,-999.0,99,-99.99,,,0.00,Acu-Link.com,2013-10-18 05:51:00,
2013-10-18 02:06:00,61.2,60.9,-100.00,SSW,202,1.1,-999.0,99,-99.99,,,0.00,Acu-Link.com,2013-10-18 06:06:00,
2013-10-18 02:21:00,61.7,61.4,-100.00,West,270,4.2,-999.0,99,-99.99,,,0.00,Acu-Link.com,2013-10-18 06:21:00,
2013-10-18 02:36:00,61.7,61.4,-100.00,South,180,2.2,-999.0,99,-99.99,,,0.00,Acu-Link.com,2013-10-18 06:36:00,
2013-10-18 02:52:00,61.7,61.4,-100.00,SSW,202,1.1,-999.0,99,-99.99,,,0.00,Acu-Link.com,2013-10-18 06:52:00,
2013-10-18 03:07:00,61.9,61.6,-100.00,SW,225,2.7,-999.0,99,-99.99,,,0.00,Acu-Link.com,2013-10-18 07:07:00,
2013-10-18 03:22:00,62.1,61.8,-100.00,WNW,292,2.7,-999.0,99,-99.99,,,0.00,Acu-Link.com,2013-10-18 07:22:00,
2013-10-18 03:38:00,62.1,61.8,-100.00,SW,225,2.2,-999.0,99,-99.99,,,0.01,Acu-Link.com,2013-10-18 07:38:00,
2013-10-18 03:53:00,61.9,61.6,-100.00,NE,45,1.7,-999.0,99,-99.99,,,0.01,Acu-Link.com,2013-10-18 07:53:00,
2013-10-18 04:08:00,61.9,61.6,-100.00,SSE,157,3.2,-999.0,99,-99.99,,,0.01,Acu-Link.com,2013-10-18 08:08:00,
2013-10-18 04:23:00,61.5,61.2,-100.00,ESE,112,2.7,-999.0,99,-99.99,,,0.01,Acu-Link.com,2013-10-18 08:23:00,
2013-10-18 04:38:00,61.5,61.2,-100.00,WSW,247,2.2,-999.0,99,-99.99,,,0.01,Acu-Link.com,2013-10-18 08:38:00,
2013-10-18 04:54:00,61.9,61.6,-100.00,NW,315,3.7,-999.0,99,-99.99,,,0.01,Acu-Link.com,2013-10-18 08:54:00,
2013-10-18 05:09:00,62.8,62.5,-100.00,SSE,157,1.7,-999.0,99,-99.99,,,0.01,Acu-Link.com,2013-10-18 09:09:00,
2013-10-18 05:24:00,63.0,62.4,-100.00,South,180,2.7,-999.0,98,-99.99,,,0.01,Acu-Link.com,2013-10-18 09:24:00,
2013-10-18 05:39:00,63.1,62.5,-100.00,SW,225,5.8,-999.0,98,-99.99,,,0.01,Acu-Link.com,2013-10-18 09:39:00,
2013-10-18 05:55:00,63.3,62.7,-100.00,South,180,2.7,-999.0,98,-99.99,,,0.01,Acu-Link.com,2013-10-18 09:55:00,
2013-10-18 06:10:00,63.3,62.7,-100.00,WSW,247,5.3,-999.0,98,-99.99,,,0.01,Acu-Link.com,2013-10-18 10:10:00,
2013-10-18 06:25:00,63.5,62.9,-100.00,West,270,4.2,-999.0,98,-99.99,,,0.01,Acu-Link.com,2013-10-18 10:25:00,
2013-10-18 06:41:00,63.9,63.0,-100.00,West,270,2.7,-999.0,97,-99.99,,,0.01,Acu-Link.com,2013-10-18 10:41:00,
2013-10-18 06:56:00,63.9,63.0,-100.00,ESE,112,3.2,-999.0,97,-99.99,,,0.01,Acu-Link.com,2013-10-18 10:56:00,
2013-10-18 07:12:00,63.5,62.6,-100.00,WSW,247,3.7,-999.0,97,-99.99,,,0.01,Acu-Link.com,2013-10-18 11:12:00,
2013-10-18 07:27:00,63.5,62.6,-100.00,SE,135,3.7,-999.0,97,-99.99,,,0.01,Acu-Link.com,2013-10-18 11:27:00,
2013-10-18 07:45:00,63.5,62.3,-100.00,NW,315,5.3,-999.0,96,-99.99,,,0.01,Acu-Link.com,2013-10-18 11:45:00,
2013-10-18 08:00:00,63.5,62.3,-100.00,WNW,292,3.7,-999.0,96,-99.99,,,0.01,Acu-Link.com,2013-10-18 12:00:00,
2013-10-18 08:15:00,63.5,62.3,-100.00,West,270,2.2,-999.0,96,-99.99,,,0.01,Acu-Link.com,2013-10-18 12:15:00,
2013-10-18 08:30:00,64.4,62.6,-100.00,NE,45,2.7,-999.0,94,-99.99,,,0.01,Acu-Link.com,2013-10-18 12:30:00,
2013-10-18 08:46:00,65.1,62.4,-100.00,NNW,337,2.2,-999.0,91,-99.99,,,0.01,Acu-Link.com,2013-10-18 12:46:00,
2013-10-18 09:01:00,65.8,62.5,-100.00,East,90,4.2,-999.0,89,-99.99,,,0.01,Acu-Link.com,2013-10-18 13:01:00,
2013-10-18 09:17:00,65.8,61.5,-100.00,West,270,8.3,-999.0,86,-99.99,,,0.01,Acu-Link.com,2013-10-18 13:17:00,
2013-10-18 09:32:00,66.0,60.3,-100.00,NNE,22,5.3,-999.0,82,-99.99,,,0.01,Acu-Link.com,2013-10-18 13:32:00,
2013-10-18 09:47:00,66.6,59.2,-100.00,NE,45,4.2,-999.0,77,-99.99,,,0.01,Acu-Link.com,2013-10-18 13:47:00,
2013-10-18 10:18:00,66.4,54.7,-100.00,NNE,22,9.4,-999.0,66,-99.99,,,0.01,Acu-Link.com,2013-10-18 14:18:00,
2013-10-18 10:34:00,67.1,54.1,-100.00,East,90,1.7,-999.0,63,-99.99,,,0.01,Acu-Link.com,2013-10-18 14:34:00,
2013-10-18 10:49:00,67.1,54.5,-100.00,West,270,3.7,-999.0,64,-99.99,,,0.01,Acu-Link.com,2013-10-18 14:49:00,
2013-10-18 11:05:00,67.1,53.6,-100.00,West,270,3.2,-999.0,62,-99.99,,,0.01,Acu-Link.com,2013-10-18 15:05:00,
2013-10-18 11:21:00,67.1,52.3,-100.00,NNW,337,2.2,-999.0,59,-99.99,,,0.01,Acu-Link.com,2013-10-18 15:21:00,
2013-10-18 11:36:00,68.7,52.4,-100.00,WNW,292,4.7,-999.0,56,-99.99,,,0.01,Acu-Link.com,2013-10-18 15:36:00,
2013-10-18 11:52:00,69.3,51.9,-100.00,ESE,112,3.7,-999.0,54,-99.99,,,0.01,Acu-Link.com,2013-10-18 15:52:00,
2013-10-18 12:07:00,69.3,50.9,-100.00,WNW,292,2.7,-999.0,52,-99.99,,,0.01,Acu-Link.com,2013-10-18 16:07:00,
2013-10-18 12:23:00,69.8,50.8,-100.00,NNW,337,4.2,-999.0,51,-99.99,,,0.01,Acu-Link.com,2013-10-18 16:23:00,
2013-10-18 12:38:00,69.8,50.8,-100.00,NNW,337,4.7,-999.0,51,-99.99,,,0.01,Acu-Link.com,2013-10-18 16:38:00,
2013-10-18 12:53:00,71.4,50.7,-100.00,SW,225,4.7,-999.0,48,-99.99,,,0.01,Acu-Link.com,2013-10-18 16:53:00,
2013-10-18 13:09:00,69.8,50.3,-100.00,NNW,337,1.7,-999.0,50,-99.99,,,0.01,Acu-Link.com,2013-10-18 17:09:00,
2013-10-18 13:25:00,70.3,50.2,-100.00,North,0,4.2,-999.0,49,-99.99,,,0.01,Acu-Link.com,2013-10-18 17:25:00,
2013-10-18 13:40:00,69.3,50.4,-100.00,NE,45,4.7,-999.0,51,-99.99,,,0.01,Acu-Link.com,2013-10-18 17:40:00,
2013-10-18 14:00:00,71.2,51.6,-100.00,West,270,2.7,-999.0,50,-99.99,,,0.01,Acu-Link.com,2013-10-18 18:00:00,
2013-10-18 14:15:00,70.9,49.1,-100.00,WNW,292,4.2,-999.0,46,-99.99,,,0.01,Acu-Link.com,2013-10-18 18:15:00,
2013-10-18 14:31:00,70.0,48.8,-100.00,WSW,247,3.7,-999.0,47,-99.99,,,0.01,Acu-Link.com,2013-10-18 18:31:00,
2013-10-18 14:46:00,70.2,50.1,-100.00,WSW,247,3.7,-999.0,49,-99.99,,,0.01,Acu-Link.com,2013-10-18 18:46:00,
2013-10-18 15:01:00,69.3,49.3,-100.00,NNW,337,3.7,-999.0,49,-99.99,,,0.01,Acu-Link.com,2013-10-18 19:01:00,
2013-10-18 15:17:00,70.3,49.7,-100.00,NNW,337,4.7,-999.0,48,-99.99,,,0.01,Acu-Link.com,2013-10-18 19:17:00,
2013-10-18 15:32:00,69.4,49.9,-100.00,SSW,202,4.7,-999.0,50,-99.99,,,0.01,Acu-Link.com,2013-10-18 19:32:00,
2013-10-18 15:47:00,68.4,50.1,-100.00,ENE,67,4.2,-999.0,52,-99.99,,,0.01,Acu-Link.com,2013-10-18 19:47:00,
2013-10-18 16:03:00,68.0,49.7,-100.00,SSE,157,4.7,-999.0,52,-99.99,,,0.01,Acu-Link.com,2013-10-18 20:03:00,
2013-10-18 16:18:00,67.1,48.4,-100.00,WSW,247,3.2,-999.0,51,-99.99,,,0.01,Acu-Link.com,2013-10-18 20:18:00,
2013-10-18 16:33:00,66.0,53.0,-100.00,WSW,247,4.2,-999.0,63,-99.99,,,0.01,Acu-Link.com,2013-10-18 20:33:00,
2013-10-18 16:48:00,64.9,52.8,-100.00,NNE,22,5.8,-999.0,65,-99.99,,,0.01,Acu-Link.com,2013-10-18 20:48:00,
2013-10-18 17:03:00,64.4,53.6,-100.00,ESE,112,2.2,-999.0,68,-99.99,,,0.01,Acu-Link.com,2013-10-18 21:03:00,
2013-10-18 17:19:00,63.5,53.1,-100.00,South,180,2.7,-999.0,69,-99.99,,,0.01,Acu-Link.com,2013-10-18 21:19:00,
2013-10-18 17:34:00,62.8,53.3,-100.00,WNW,292,2.2,-999.0,71,-99.99,,,0.01,Acu-Link.com,2013-10-18 21:34:00,
2013-10-18 17:51:00,62.1,53.7,-100.00,NE,45,0.0,-999.0,74,-99.99,,,0.01,Acu-Link.com,2013-10-18 21:51:00,
2013-10-18 18:06:00,61.3,53.3,-100.00,WNW,292,1.1,-999.0,75,-99.99,,,0.01,Acu-Link.com,2013-10-18 22:06:00,
2013-10-18 18:21:00,60.4,53.9,-100.00,WSW,247,3.7,-999.0,79,-99.99,,,0.01,Acu-Link.com,2013-10-18 22:21:00,
2013-10-18 18:36:00,59.7,53.5,-100.00,ESE,112,2.2,-999.0,80,-99.99,,,0.01,Acu-Link.com,2013-10-18 22:36:00,
2013-10-18 18:52:00,58.6,53.5,-100.00,ESE,112,0.0,-999.0,83,-99.99,,,0.01,Acu-Link.com,2013-10-18 22:52:00,
2013-10-18 19:07:00,57.2,53.0,-100.00,South,180,0.0,-999.0,86,-99.99,,,0.01,Acu-Link.com,2013-10-18 23:07:00,
2013-10-18 19:23:00,56.7,53.2,-100.00,West,270,0.0,-999.0,88,-99.99,,,0.01,Acu-Link.com,2013-10-18 23:23:00,
2013-10-18 19:39:00,55.9,53.0,-100.00,NE,45,0.0,-999.0,90,-99.99,,,0.01,Acu-Link.com,2013-10-18 23:39:00,
2013-10-18 19:54:00,55.0,52.4,-100.00,West,270,0.0,-999.0,91,-99.99,,,0.01,Acu-Link.com,2013-10-18 23:54:00,
2013-10-18 20:09:00,54.3,51.7,-100.00,NE,45,1.1,-999.0,91,-99.99,,,0.01,Acu-Link.com,2013-10-19 00:09:00,
2013-10-18 20:25:00,53.8,51.5,-100.00,NNE,22,1.7,-999.0,92,-99.99,,,0.01,Acu-Link.com,2013-10-19 00:25:00,
2013-10-18 20:40:00,53.1,50.8,-100.00,East,90,0.0,-999.0,92,-99.99,,,0.01,Acu-Link.com,2013-10-19 00:40:00,
2013-10-18 20:55:00,52.0,50.0,-100.00,East,90,0.0,-999.0,93,-99.99,,,0.01,Acu-Link.com,2013-10-19 00:55:00,
2013-10-18 21:11:00,51.6,49.4,-100.00,ESE,112,0.0,-999.0,92,-99.99,,,0.01,Acu-Link.com,2013-10-19 01:11:00,
2013-10-18 21:26:00,51.1,48.9,-100.00,NNE,22,0.0,-999.0,92,-99.99,,,0.01,Acu-Link.com,2013-10-19 01:26:00,
2013-10-18 21:41:00,50.9,49.2,-100.00,NW,315,0.0,-999.0,94,-99.99,,,0.01,Acu-Link.com,2013-10-19 01:41:00,
2013-10-18 21:56:00,49.8,48.4,-100.00,West,270,0.0,-999.0,95,-99.99,,,0.01,Acu-Link.com,2013-10-19 01:56:00,
2013-10-18 22:11:00,49.8,48.4,-100.00,WNW,292,0.0,-999.0,95,-99.99,,,0.01,Acu-Link.com,2013-10-19 02:11:00,
2013-10-18 22:27:00,50.0,48.9,-100.00,West,270,0.0,-999.0,96,-99.99,,,0.01,Acu-Link.com,2013-10-19 02:27:00,
2013-10-18 22:42:00,48.4,47.0,-100.00,WSW,247,1.7,-999.0,95,-99.99,,,0.01,Acu-Link.com,2013-10-19 02:42:00,
2013-10-18 22:57:00,49.3,47.9,-100.00,North,0,0.0,-999.0,95,-99.99,,,0.01,Acu-Link.com,2013-10-19 02:57:00,
2013-10-18 23:14:00,49.3,47.9,-100.00,NNW,337,1.7,-999.0,95,-99.99,,,0.01,Acu-Link.com,2013-10-19 03:14:00,
2013-10-18 23:29:00,49.3,48.2,-100.00,ESE,112,2.2,-999.0,96,-99.99,,,0.01,Acu-Link.com,2013-10-19 03:29:00,
2013-10-18 23:44:00,49.3,48.2,-100.00,SE,135,1.1,-999.0,96,-99.99,,,0.01,Acu-Link.com,2013-10-19 03:44:00,
2013-10-18 23:59:00,49.5,48.1,-100.00,West,270,0.0,-999.0,95,-99.99,,,0.01,Acu-Link.com,2013-10-19 03:59:00,